createdAt,value
2023-04-01T00:01:16.030Z,98.34
2023-04-01T00:03:43.008Z,98.32
2023-04-01T00:06:11.094Z,98.38
2023-04-01T00:08:37.676Z,98.41
2023-04-01T00:11:04.220Z,98.54
2023-04-01T00:13:30.846Z,98.47
2023-04-01T00:15:57.618Z,98.59
2023-04-01T00:18:24.930Z,98.60
2023-04-01T00:20:52.444Z,98.58
2023-04-01T00:23:19.968Z,98.62
2023-04-01T00:25:48.916Z,98.58
2023-04-01T00:28:17.568Z,98.62
2023-04-01T00:30:44.242Z,98.62
2023-04-01T00:33:10.828Z,98.45
2023-04-01T00:35:37.586Z,98.50
2023-04-01T00:38:04.841Z,98.66
2023-04-01T00:40:33.865Z,98.52
2023-04-01T00:43:01.531Z,98.63
2023-04-01T00:45:32.151Z,98.55
2023-04-01T00:48:03.775Z,98.49
2023-04-01T00:50:33.194Z,98.49
2023-04-01T00:53:01.805Z,98.60
2023-04-01T00:55:31.402Z,98.43
2023-04-01T00:57:59.412Z,98.48
2023-04-01T01:00:27.613Z,98.47
2023-04-01T01:02:54.248Z,98.52
2023-04-01T01:05:27.607Z,98.48
2023-04-01T01:08:01.035Z,98.40
2023-04-01T01:10:32.865Z,98.50
2023-04-01T01:13:22.610Z,98.32
2023-04-01T01:15:58.893Z,98.31
2023-04-01T01:18:37.079Z,98.14
2023-04-01T01:21:25.437Z,98.27
2023-04-01T01:24:18.035Z,98.12
2023-04-01T01:26:53.164Z,98.07
2023-04-01T01:29:38.066Z,98.20
2023-04-01T01:32:39.334Z,98.33
2023-04-01T01:35:17.572Z,98.26
2023-04-01T01:37:46.286Z,98.21
2023-04-01T01:40:15.839Z,98.27
2023-04-01T01:42:47.692Z,98.34
2023-04-01T01:45:18.792Z,98.47
2023-04-01T01:47:47.238Z,98.44
2023-04-01T01:50:14.845Z,98.38
2023-04-01T01:52:41.408Z,98.38
2023-04-01T01:55:27.264Z,98.38
2023-04-01T01:57:54.018Z,98.53
2023-04-01T02:00:21.702Z,98.33
2023-04-01T02:02:49.927Z,98.51
2023-04-01T02:05:21.772Z,98.42
2023-04-01T02:07:56.946Z,98.43
2023-04-01T02:10:27.743Z,98.43
2023-04-01T02:12:58.866Z,98.43
2023-04-01T02:15:31.765Z,98.28
2023-04-01T02:17:58.834Z,98.49
2023-04-01T02:20:28.061Z,98.55
2023-04-01T02:22:56.845Z,98.52
2023-04-01T02:25:34.989Z,98.39
2023-04-01T02:28:05.071Z,98.40
2023-04-01T02:30:35.173Z,98.35
2023-04-01T02:33:03.496Z,98.42
2023-04-01T02:35:30.531Z,98.40
2023-04-01T02:37:57.526Z,98.67
2023-04-01T02:40:24.021Z,98.45
2023-04-01T02:42:50.552Z,98.23
2023-04-01T02:45:17.144Z,98.42
2023-04-01T02:47:43.586Z,98.61
2023-04-01T02:50:10.926Z,98.61
2023-04-01T02:52:37.596Z,98.47
2023-04-01T02:55:05.165Z,98.49
2023-04-01T02:57:31.709Z,98.45
2023-04-01T02:59:58.175Z,98.50
2023-04-01T03:02:24.858Z,98.60
2023-04-01T03:04:51.384Z,98.62
2023-04-01T03:07:17.826Z,98.30
2023-04-01T03:09:44.314Z,98.58
2023-04-01T03:12:10.678Z,98.65
2023-04-01T03:14:37.079Z,98.62
2023-04-01T03:17:03.500Z,98.60
2023-04-01T03:19:30.047Z,98.66
2023-04-01T03:21:56.418Z,98.75
2023-04-01T03:24:22.842Z,98.75
2023-04-01T03:26:49.450Z,98.69
2023-04-01T03:29:16.907Z,98.81
2023-04-01T03:31:43.654Z,98.94
2023-04-01T03:34:10.257Z,98.87
2023-04-01T03:36:36.949Z,98.81
2023-04-01T03:39:04.657Z,98.89
2023-04-01T03:41:31.722Z,99.12
2023-04-01T03:43:58.249Z,98.82
2023-04-01T03:46:25.036Z,99.00
2023-04-01T03:48:51.922Z,98.94
2023-04-01T03:51:18.547Z,98.91
2023-04-01T03:53:45.078Z,99.01
2023-04-01T03:56:11.970Z,98.89
2023-04-01T03:58:39.898Z,99.00
2023-04-01T04:01:17.904Z,99.06
2023-04-01T04:03:45.218Z,99.18
2023-04-01T04:06:13.949Z,99.12
2023-04-01T04:08:41.153Z,98.96
2023-04-01T04:11:07.827Z,99.03
2023-04-01T04:13:34.406Z,99.11
2023-04-01T04:16:00.889Z,99.15
2023-04-01T04:18:27.322Z,99.18
2023-04-01T04:20:53.823Z,99.15
2023-04-01T04:23:20.760Z,99.34
2023-04-01T04:25:57.603Z,99.11
2023-04-01T04:28:24.243Z,99.25
2023-04-01T04:30:50.805Z,99.18
2023-04-01T04:33:17.227Z,99.20
2023-04-01T04:35:43.679Z,99.10
2023-04-01T04:38:10.302Z,99.22
2023-04-01T04:40:38.396Z,99.32
2023-04-01T04:43:05.106Z,99.35
2023-04-01T04:45:32.177Z,99.31
2023-04-01T04:47:58.891Z,99.39
2023-04-01T04:50:26.368Z,99.45
2023-04-01T04:52:52.936Z,99.18
2023-04-01T04:55:19.415Z,99.40
2023-04-01T04:57:45.908Z,99.46
2023-04-01T05:00:13.142Z,99.52
2023-04-01T05:02:39.805Z,99.55
2023-04-01T05:05:06.752Z,99.52
2023-04-01T05:07:34.290Z,99.54
2023-04-01T05:10:01.553Z,99.53
2023-04-01T05:12:27.990Z,99.66
2023-04-01T05:14:54.409Z,99.55
2023-04-01T05:17:20.822Z,99.66
2023-04-01T05:19:47.611Z,99.74
2023-04-01T05:22:14.113Z,99.90
2023-04-01T05:24:40.650Z,99.78
2023-04-01T05:27:07.046Z,99.89
2023-04-01T05:29:33.739Z,99.98
2023-04-01T05:32:00.159Z,100.00
2023-04-01T05:34:26.842Z,100.00
2023-04-01T05:36:53.333Z,99.95
2023-04-01T05:39:19.741Z,99.94
2023-04-01T05:41:46.603Z,99.91
2023-04-01T05:44:13.620Z,100.00
2023-04-01T05:46:40.153Z,100.00
2023-04-01T05:49:06.669Z,100.00
2023-04-01T05:51:33.073Z,100.00
2023-04-01T05:53:59.510Z,100.00
2023-04-01T05:56:26.048Z,99.98
2023-04-01T05:58:54.311Z,100.00
2023-04-01T06:01:21.464Z,100.00
2023-04-01T06:03:48.052Z,100.00
2023-04-01T06:06:17.486Z,100.00
2023-04-01T06:08:44.259Z,100.00
2023-04-01T06:11:50.217Z,100.00
2023-04-01T06:14:32.718Z,100.00
2023-04-01T06:17:27.063Z,100.00
2023-04-01T06:20:25.750Z,100.00
2023-04-01T06:23:10.848Z,100.00
2023-04-01T06:25:52.499Z,100.00
2023-04-01T06:28:43.145Z,100.00
2023-04-01T06:31:28.310Z,100.00
2023-04-01T06:34:15.416Z,100.00
2023-04-01T06:37:19.314Z,100.00
2023-04-01T06:40:07.542Z,100.00
2023-04-01T06:42:47.355Z,100.00
2023-04-01T06:45:19.811Z,100.00
2023-04-01T06:48:04.091Z,100.00
2023-04-01T06:50:56.774Z,100.00
2023-04-01T06:53:38.321Z,100.00
2023-04-01T06:56:11.874Z,100.00
2023-04-01T06:58:47.941Z,100.00
2023-04-01T07:01:35.205Z,100.00
2023-04-01T07:04:18.137Z,100.00
2023-04-01T07:06:55.078Z,100.00
2023-04-01T07:09:33.444Z,99.88
2023-04-01T07:12:07.057Z,99.97
2023-04-01T07:14:37.695Z,99.95
2023-04-01T07:17:17.672Z,100.00
2023-04-01T07:19:47.923Z,99.97
2023-04-01T07:22:26.476Z,99.89
2023-04-01T07:24:54.979Z,99.92
2023-04-01T07:27:21.442Z,99.71
2023-04-01T07:29:48.431Z,99.67
2023-04-01T07:32:17.634Z,99.64
2023-04-01T07:34:56.107Z,99.60
2023-04-01T07:37:28.367Z,99.59
2023-04-01T07:40:31.726Z,99.44
2023-04-01T07:43:19.892Z,99.35
2023-04-01T07:46:20.624Z,99.33
2023-04-01T07:48:55.029Z,99.18
2023-04-01T07:51:35.639Z,99.21
2023-04-01T07:54:09.264Z,99.24
2023-04-01T07:56:42.219Z,99.06
2023-04-01T07:59:35.168Z,99.44
2023-04-01T08:02:34.104Z,99.04
2023-04-01T08:05:22.475Z,99.18
2023-04-01T08:08:29.399Z,99.04
2023-04-01T08:11:27.053Z,99.06
2023-04-01T08:14:18.447Z,99.16
2023-04-01T08:16:59.322Z,99.24
2023-04-01T08:19:54.056Z,99.19
2023-04-01T08:22:31.934Z,99.29
2023-04-01T08:25:04.226Z,99.27
2023-04-01T08:27:45.051Z,99.28
2023-04-01T08:30:25.296Z,99.21
2023-04-01T08:32:58.069Z,99.09
2023-04-01T08:35:42.014Z,99.20
2023-04-01T08:38:32.152Z,99.21
2023-04-01T08:41:01.972Z,99.34
2023-04-01T08:43:53.102Z,99.58
2023-04-01T08:46:35.505Z,99.12
2023-04-01T08:49:33.039Z,99.30
2023-04-01T08:52:08.625Z,99.24
2023-04-01T08:54:50.715Z,99.26
2023-04-01T08:57:44.876Z,99.20
2023-04-01T09:00:31.839Z,99.21
2023-04-01T09:03:23.653Z,99.15
2023-04-01T09:06:35.359Z,99.01
2023-04-01T09:09:07.441Z,99.11
2023-04-01T09:11:59.851Z,98.96
2023-04-01T09:14:44.795Z,98.84
2023-04-01T09:17:28.030Z,98.63
2023-04-01T09:20:19.762Z,98.55
2023-04-01T09:23:16.949Z,98.38
2023-04-01T09:25:55.636Z,98.38
2023-04-01T09:28:40.989Z,98.37
2023-04-01T09:31:16.654Z,98.25
2023-04-01T09:34:11.027Z,98.28
2023-04-01T09:36:55.933Z,98.33
2023-04-01T09:39:38.285Z,98.19
2023-04-01T09:42:34.084Z,98.09
2023-04-01T09:45:21.761Z,98.00
2023-04-01T09:48:00.685Z,97.76
2023-04-01T09:50:29.944Z,97.62
2023-04-01T09:53:28.870Z,97.42
2023-04-01T09:56:26.499Z,97.11
2023-04-01T09:59:10.915Z,97.01
2023-04-01T10:01:58.917Z,96.87
2023-04-01T10:04:25.348Z,96.44
2023-04-01T10:07:16.003Z,95.96
2023-04-01T10:09:51.616Z,95.67
2023-04-01T10:12:49.662Z,95.09
2023-04-01T10:15:57.905Z,94.65
2023-04-01T10:18:45.451Z,94.20
2023-04-01T10:21:26.590Z,92.87
2023-04-01T10:24:26.647Z,93.01
2023-04-01T10:27:29.693Z,92.44
2023-04-01T10:30:29.937Z,91.62
2023-04-01T10:33:33.780Z,92.32
2023-04-01T10:36:36.866Z,91.88
2023-04-01T10:39:22.408Z,92.44
2023-04-01T10:42:26.555Z,92.13
2023-04-01T10:45:17.598Z,91.97
2023-04-01T10:48:03.053Z,91.41
2023-04-01T10:51:03.305Z,91.95
2023-04-01T10:53:42.455Z,91.68
2023-04-01T10:56:34.326Z,91.20
2023-04-01T10:59:19.575Z,91.25
2023-04-01T11:02:09.967Z,90.49
2023-04-01T11:05:20.906Z,90.33
2023-04-01T11:08:25.219Z,89.70
2023-04-01T11:11:26.658Z,89.91
2023-04-01T11:14:17.524Z,90.36
2023-04-01T11:17:20.912Z,90.85
2023-04-01T11:19:49.964Z,90.98
2023-04-01T11:22:20.910Z,91.59
2023-04-01T11:25:12.868Z,91.86
2023-04-01T11:27:54.491Z,92.00
2023-04-01T11:30:25.012Z,92.18
2023-04-01T11:33:04.898Z,91.56
2023-04-01T11:35:48.698Z,91.61
2023-04-01T11:38:33.767Z,91.75
2023-04-01T11:41:18.804Z,91.22
2023-04-01T11:43:52.760Z,90.86
2023-04-01T11:46:30.757Z,89.87
2023-04-01T11:49:19.144Z,89.93
2023-04-01T11:52:06.769Z,89.95
2023-04-01T11:54:39.255Z,89.89
2023-04-01T11:57:22.080Z,90.17
2023-04-01T12:00:15.319Z,90.33
2023-04-01T12:03:09.780Z,91.08
2023-04-01T12:05:54.953Z,91.52
2023-04-01T12:08:24.114Z,91.41
2023-04-01T12:11:23.590Z,91.77
2023-04-01T12:14:45.553Z,91.90
2023-04-01T12:17:22.061Z,91.85
2023-04-01T12:20:13.362Z,92.05
2023-04-01T12:23:24.754Z,92.25
2023-04-01T12:25:53.980Z,91.84
2023-04-01T12:28:42.119Z,91.53
2023-04-01T12:31:08.506Z,91.95
2023-04-01T12:33:53.383Z,92.19
2023-04-01T12:36:31.556Z,92.67
2023-04-01T12:39:29.186Z,93.02
2023-04-01T12:42:13.859Z,92.96
2023-04-01T12:45:18.042Z,93.15
2023-04-01T12:48:03.002Z,93.51
2023-04-01T12:50:40.314Z,93.59
2023-04-01T12:53:12.780Z,93.73
2023-04-01T12:55:44.202Z,93.62
2023-04-01T12:58:18.229Z,93.51
2023-04-01T13:00:45.232Z,93.28
2023-04-01T13:03:33.897Z,92.45
2023-04-01T13:06:24.862Z,92.62
2023-04-01T13:09:10.191Z,92.25
2023-04-01T13:11:51.748Z,92.44
2023-04-01T13:14:31.205Z,92.33
2023-04-01T13:17:36.401Z,92.29
2023-04-01T13:20:24.236Z,92.44
2023-04-01T13:22:56.606Z,92.46
2023-04-01T13:25:36.955Z,92.66
2023-04-01T13:28:18.621Z,92.46
2023-04-01T13:31:30.960Z,92.82
2023-04-01T13:34:16.134Z,93.09
2023-04-01T13:37:16.921Z,93.74
2023-04-01T13:39:53.811Z,94.35
2023-04-01T13:42:27.315Z,94.55
2023-04-01T13:45:17.027Z,95.04
2023-04-01T13:48:05.260Z,95.33
2023-04-01T13:50:38.004Z,95.51
2023-04-01T13:53:29.844Z,95.45
2023-04-01T13:56:17.595Z,95.69
2023-04-01T13:58:51.015Z,95.76
2023-04-01T14:01:53.821Z,95.84
2023-04-01T14:04:29.190Z,96.08
2023-04-01T14:07:10.007Z,96.27
2023-04-01T14:09:57.712Z,96.23
2023-04-01T14:12:45.939Z,96.30
2023-04-01T14:15:39.774Z,96.66
2023-04-01T14:18:27.911Z,96.75
2023-04-01T14:21:37.109Z,97.00
2023-04-01T14:24:25.392Z,97.21
2023-04-01T14:27:09.037Z,97.63
2023-04-01T14:29:50.690Z,97.65
2023-04-01T14:32:42.830Z,97.82
2023-04-01T14:35:51.386Z,97.67
2023-04-01T14:38:32.982Z,97.85
2023-04-01T14:41:22.469Z,97.85
2023-04-01T14:44:26.737Z,97.95
2023-04-01T14:47:08.700Z,97.70
2023-04-01T14:49:40.627Z,97.82
2023-04-01T14:52:35.752Z,97.77
2023-04-01T14:55:19.956Z,97.54
2023-04-01T14:58:08.282Z,97.80
2023-04-01T15:01:08.716Z,97.92
2023-04-01T15:04:10.664Z,98.01
2023-04-01T15:07:16.544Z,97.94
2023-04-01T15:09:58.244Z,97.84
2023-04-01T15:12:35.353Z,97.93
2023-04-01T15:15:17.957Z,98.01
2023-04-01T15:17:48.741Z,98.29
2023-04-01T15:20:41.957Z,98.02
2023-04-01T15:23:16.921Z,98.14
2023-04-01T15:26:34.044Z,98.16
2023-04-01T15:29:38.711Z,97.93
2023-04-01T15:32:46.707Z,97.89
2023-04-01T15:35:37.250Z,97.62
2023-04-01T15:38:12.094Z,97.83
2023-04-01T15:40:52.532Z,97.67
2023-04-01T15:43:44.272Z,97.53
2023-04-01T15:46:42.468Z,97.55
2023-04-01T15:49:12.289Z,97.34
2023-04-01T15:52:04.124Z,96.93
2023-04-01T15:54:53.561Z,96.94
2023-04-01T15:57:25.309Z,96.74
2023-04-01T16:00:18.362Z,96.91
2023-04-01T16:02:49.902Z,96.88
2023-04-01T16:05:38.028Z,96.94
2023-04-01T16:08:17.956Z,97.06
2023-04-01T16:10:56.293Z,96.91
2023-04-01T16:13:32.563Z,96.98
2023-04-01T16:16:18.320Z,97.12
2023-04-01T16:19:03.101Z,97.04
2023-04-01T16:22:03.158Z,97.12
2023-04-01T16:24:56.737Z,97.00
2023-04-01T16:27:23.145Z,96.92
2023-04-01T16:29:56.954Z,97.01
2023-04-01T16:32:30.515Z,96.98
2023-04-01T16:35:14.262Z,97.18
2023-04-01T16:38:20.411Z,97.23
2023-04-01T16:41:11.915Z,97.29
2023-04-01T16:43:56.415Z,97.37
2023-04-01T16:46:36.281Z,97.36
2023-04-01T16:49:26.742Z,97.42
2023-04-01T16:51:57.803Z,97.48
2023-04-01T16:54:38.111Z,97.29
2023-04-01T16:57:10.743Z,97.19
2023-04-01T16:59:45.614Z,97.15
2023-04-01T17:02:18.419Z,97.14
2023-04-01T17:04:55.742Z,96.94
2023-04-01T17:07:39.640Z,96.86
2023-04-01T17:10:19.538Z,96.92
2023-04-01T17:12:58.045Z,96.80
2023-04-01T17:15:52.310Z,96.57
2023-04-01T17:18:33.674Z,96.59
2023-04-01T17:21:18.950Z,96.31
2023-04-01T17:24:00.735Z,96.19
2023-04-01T17:27:03.184Z,96.40
2023-04-01T17:30:00.586Z,96.09
2023-04-01T17:32:47.676Z,96.00
2023-04-01T17:35:44.697Z,95.91
2023-04-01T17:38:51.456Z,96.05
2023-04-01T17:41:42.188Z,96.07
2023-04-01T17:44:33.302Z,96.29
2023-04-01T17:47:23.366Z,96.43
2023-04-01T17:50:10.810Z,96.21
2023-04-01T17:52:46.554Z,96.42
2023-04-01T17:55:18.623Z,96.37
2023-04-01T17:58:01.644Z,96.34
2023-04-01T18:00:53.893Z,96.10
2023-04-01T18:03:45.982Z,96.26
2023-04-01T18:06:20.802Z,96.32
2023-04-01T18:08:58.303Z,96.02
2023-04-01T18:11:40.380Z,95.85
2023-04-01T18:14:34.991Z,95.82
2023-04-01T18:17:23.618Z,95.80
2023-04-01T18:20:18.053Z,95.83
2023-04-01T18:22:49.437Z,95.83
2023-04-01T18:25:23.563Z,95.48
2023-04-01T18:28:22.257Z,95.64
2023-04-01T18:30:57.705Z,95.46
2023-04-01T18:33:36.138Z,95.36
2023-04-01T18:36:27.051Z,95.50
2023-04-01T18:38:58.133Z,95.60
2023-04-01T18:41:48.565Z,95.48
2023-04-01T18:44:35.565Z,95.54
2023-04-01T18:47:21.046Z,95.46
2023-04-01T18:50:01.584Z,95.78
2023-04-01T18:52:45.108Z,95.45
2023-04-01T18:55:44.072Z,95.56
2023-04-01T18:58:18.489Z,95.65
2023-04-01T19:00:55.554Z,95.74
2023-04-01T19:03:33.817Z,95.62
2023-04-01T19:06:09.196Z,95.54
2023-04-01T19:08:40.227Z,95.33
2023-04-01T19:11:31.557Z,95.21
2023-04-01T19:14:12.046Z,95.15
2023-04-01T19:16:59.405Z,95.07
2023-04-01T19:19:34.423Z,95.18
2023-04-01T19:22:42.917Z,95.00
2023-04-01T19:25:48.243Z,94.92
2023-04-01T19:28:21.084Z,95.08
2023-04-01T19:31:09.613Z,94.79
2023-04-01T19:34:00.522Z,94.84
2023-04-01T19:36:39.492Z,94.82
2023-04-01T19:39:43.318Z,94.85
2023-04-01T19:42:18.913Z,94.81
2023-04-01T19:45:07.886Z,94.67
2023-04-01T19:48:02.669Z,94.67
2023-04-01T19:50:40.523Z,94.87
2023-04-01T19:53:30.292Z,94.69
2023-04-01T19:56:13.088Z,94.72
2023-04-01T19:59:13.100Z,94.58
2023-04-01T20:01:59.146Z,94.83
2023-04-01T20:04:36.006Z,94.66
2023-04-01T20:07:20.439Z,94.68
2023-04-01T20:10:07.142Z,94.74
2023-04-01T20:13:04.214Z,95.05
2023-04-01T20:15:46.566Z,94.93
2023-04-01T20:18:38.373Z,95.16
2023-04-01T20:21:18.886Z,95.06
2023-04-01T20:23:56.535Z,95.15
2023-04-01T20:26:28.906Z,95.27
2023-04-01T20:29:18.619Z,95.20
2023-04-01T20:32:08.476Z,95.17
2023-04-01T20:35:04.332Z,95.09
2023-04-01T20:37:57.560Z,94.90
2023-04-01T20:40:36.412Z,94.83
2023-04-01T20:43:20.810Z,94.84
2023-04-01T20:46:08.439Z,94.83
2023-04-01T20:48:46.954Z,94.78
2023-04-01T20:51:16.414Z,94.83
2023-04-01T20:54:15.086Z,94.77
2023-04-01T20:57:00.562Z,94.71
2023-04-01T20:59:54.081Z,94.46
2023-04-01T21:02:39.658Z,94.50
2023-04-01T21:05:34.196Z,94.47
2023-04-01T21:08:24.535Z,94.43
2023-04-01T21:11:10.066Z,94.52
2023-04-01T21:14:03.401Z,94.52
2023-04-01T21:16:42.575Z,94.67
2023-04-01T21:19:30.448Z,94.52
2023-04-01T21:22:24.400Z,94.81
2023-04-01T21:24:58.033Z,94.69
2023-04-01T21:27:46.534Z,94.76
2023-04-01T21:30:16.034Z,94.84
2023-04-01T21:32:54.208Z,95.02
2023-04-01T21:36:10.925Z,95.01
2023-04-01T21:39:01.447Z,95.17
2023-04-01T21:41:54.258Z,95.39
2023-04-01T21:44:51.513Z,95.65
2023-04-01T21:47:51.723Z,95.68
2023-04-01T21:50:23.975Z,95.86
2023-04-01T21:53:18.372Z,96.01
2023-04-01T21:55:53.788Z,95.94
2023-04-01T21:58:41.379Z,96.05
2023-04-01T22:01:32.142Z,96.31
2023-04-01T22:04:35.002Z,96.13
2023-04-01T22:07:19.568Z,96.19
2023-04-01T22:10:21.982Z,96.04
2023-04-01T22:13:00.527Z,95.81
2023-04-01T22:15:56.538Z,95.94
2023-04-01T22:18:35.180Z,96.03
2023-04-01T22:21:17.430Z,95.47
2023-04-01T22:24:30.591Z,94.86
2023-04-01T22:27:13.141Z,94.84
2023-04-01T22:29:50.090Z,95.00
2023-04-01T22:32:28.139Z,94.98
2023-04-01T22:35:13.736Z,95.17
2023-04-01T22:37:58.406Z,94.98
2023-04-01T22:40:35.949Z,95.13
2023-04-01T22:43:08.612Z,94.67
2023-04-01T22:46:00.259Z,95.15
2023-04-01T22:48:41.977Z,94.92
2023-04-01T22:51:22.676Z,95.14
2023-04-01T22:53:55.928Z,95.06
2023-04-01T22:56:30.234Z,95.23
2023-04-01T22:59:10.016Z,95.42
2023-04-01T23:01:43.509Z,95.29
2023-04-01T23:04:18.350Z,95.36
2023-04-01T23:06:51.211Z,95.15
2023-04-01T23:09:28.498Z,94.97
2023-04-01T23:12:26.656Z,94.93
2023-04-01T23:15:00.058Z,94.92
2023-04-01T23:17:38.534Z,94.83
2023-04-01T23:20:33.404Z,94.66
2023-04-01T23:23:16.219Z,94.99
2023-04-01T23:26:04.286Z,94.93
2023-04-01T23:28:44.273Z,95.24
2023-04-01T23:31:33.951Z,94.94
2023-04-01T23:34:04.489Z,94.94
2023-04-01T23:36:38.204Z,95.14
2023-04-01T23:39:22.293Z,95.44
2023-04-01T23:41:49.732Z,95.08
2023-04-01T23:44:16.881Z,95.04
2023-04-01T23:46:47.514Z,94.75
2023-04-01T23:49:26.568Z,94.47
2023-04-01T23:52:24.437Z,94.80
2023-04-01T23:54:59.146Z,94.70
2023-04-01T23:57:30.948Z,94.54
